createdAt,value
2019-03-02T00:00:56.801Z,24.33
2019-03-02T00:03:25.965Z,25.47
2019-03-02T00:05:57.033Z,26.57
2019-03-02T00:08:26.155Z,24.90
2019-03-02T00:10:55.353Z,25.77
2019-03-02T00:13:26.634Z,27.03
2019-03-02T00:15:55.260Z,26.60
2019-03-02T00:18:25.881Z,28.73
2019-03-02T00:20:56.281Z,27.90
2019-03-02T00:23:25.461Z,28.30
2019-03-02T00:25:55.510Z,27.03
2019-03-02T00:28:24.609Z,27.60
2019-03-02T00:30:54.768Z,25.57
2019-03-02T00:33:24.541Z,27.97
2019-03-02T00:35:53.750Z,27.23
2019-03-02T00:38:23.027Z,27.47
2019-03-02T00:40:52.135Z,27.00
2019-03-02T00:43:23.724Z,27.37
2019-03-02T00:45:52.291Z,27.73
2019-03-02T00:48:21.367Z,25.20
2019-03-02T00:50:50.462Z,26.87
2019-03-02T00:53:19.708Z,27.70
2019-03-02T00:55:48.886Z,28.33
2019-03-02T00:58:17.993Z,28.60
2019-03-02T01:00:49.970Z,27.60
2019-03-02T01:03:17.915Z,28.87
2019-03-02T01:05:47.020Z,29.70
2019-03-02T01:08:16.162Z,28.80
2019-03-02T01:10:45.248Z,30.40
2019-03-02T01:13:16.786Z,29.53
2019-03-02T01:15:45.209Z,29.30
2019-03-02T01:18:14.306Z,28.80
2019-03-02T01:20:43.388Z,28.77
2019-03-02T01:23:12.458Z,29.57
2019-03-02T01:25:41.578Z,29.40
2019-03-02T01:28:10.746Z,27.70
2019-03-02T01:30:39.933Z,28.60
2019-03-02T01:33:09.008Z,29.07
2019-03-02T01:35:38.156Z,28.30
2019-03-02T01:38:07.422Z,28.90
2019-03-02T01:40:37.838Z,28.83
2019-03-02T01:43:07.343Z,30.03
2019-03-02T01:45:36.506Z,28.53
2019-03-02T01:48:05.678Z,27.67
2019-03-02T01:50:34.812Z,28.90
2019-03-02T01:53:06.545Z,26.13
2019-03-02T01:55:34.884Z,28.57
2019-03-02T01:58:04.163Z,28.77
2019-03-02T02:00:33.348Z,28.47
2019-03-02T02:03:02.424Z,29.50
2019-03-02T02:05:32.201Z,30.50
2019-03-02T02:08:02.185Z,30.33
2019-03-02T02:10:31.291Z,29.93
2019-03-02T02:13:02.720Z,31.10
2019-03-02T02:15:31.593Z,29.23
2019-03-02T02:18:00.721Z,31.30
2019-03-02T02:20:29.832Z,29.73
2019-03-02T02:22:58.917Z,32.20
2019-03-02T02:25:28.015Z,31.77
2019-03-02T02:27:57.856Z,31.97
2019-03-02T02:30:28.156Z,32.00
2019-03-02T02:33:03.726Z,31.10
2019-03-02T02:35:28.225Z,31.27
2019-03-02T02:37:57.382Z,31.20
2019-03-02T02:40:26.982Z,30.43
2019-03-02T02:42:56.019Z,30.57
2019-03-02T02:45:25.140Z,30.90
2019-03-02T02:47:54.764Z,30.00
2019-03-02T02:50:29.562Z,32.23
2019-03-02T02:52:55.439Z,28.37
2019-03-02T02:55:24.556Z,29.30
2019-03-02T02:57:53.678Z,31.07
2019-03-02T03:00:23.780Z,30.77
2019-03-02T03:02:52.904Z,31.20
2019-03-02T03:05:22.035Z,29.03
2019-03-02T03:07:55.360Z,29.03
2019-03-02T03:10:27.998Z,29.97
2019-03-02T03:13:02.047Z,29.80
2019-03-02T03:15:37.076Z,28.70
2019-03-02T03:18:07.099Z,30.57
2019-03-02T03:20:34.963Z,29.33
2019-03-02T03:23:04.216Z,31.37
2019-03-02T03:25:33.473Z,28.57
2019-03-02T03:28:02.788Z,31.37
2019-03-02T03:30:39.122Z,28.07
2019-03-02T03:33:02.835Z,30.43
2019-03-02T03:35:31.917Z,29.53
2019-03-02T03:38:01.027Z,30.07
2019-03-02T03:40:30.106Z,30.50
2019-03-02T03:43:03.085Z,28.70
2019-03-02T03:45:30.710Z,29.13
2019-03-02T03:48:00.002Z,30.43
2019-03-02T03:50:29.056Z,28.20
2019-03-02T03:52:58.293Z,29.93
2019-03-02T03:55:27.768Z,28.50
2019-03-02T03:58:00.433Z,30.23
2019-03-02T04:00:27.813Z,29.30
2019-03-02T04:02:56.942Z,30.57
2019-03-02T04:05:26.088Z,30.13
2019-03-02T04:07:55.400Z,32.20
2019-03-02T04:10:27.472Z,30.73
2019-03-02T04:13:03.894Z,29.53
2019-03-02T04:15:26.083Z,30.10
2019-03-02T04:17:55.270Z,28.13
2019-03-02T04:20:30.554Z,30.73
2019-03-02T04:23:00.454Z,30.90
2019-03-02T04:25:29.510Z,30.70
2019-03-02T04:27:58.622Z,30.70
2019-03-02T04:30:31.411Z,30.23
2019-03-02T04:33:01.810Z,29.50
2019-03-02T04:35:30.037Z,29.13
2019-03-02T04:38:00.747Z,30.40
2019-03-02T04:40:31.006Z,29.67
2019-03-02T04:43:00.119Z,27.57
2019-03-02T04:45:29.219Z,27.67
2019-03-02T04:48:00.014Z,28.93
2019-03-02T04:50:29.079Z,29.53
2019-03-02T04:52:58.110Z,28.33
2019-03-02T04:55:27.225Z,28.97
2019-03-02T04:57:56.391Z,29.30
2019-03-02T05:00:28.643Z,26.10
2019-03-02T05:02:56.281Z,27.20
2019-03-02T05:05:25.362Z,27.00
2019-03-02T05:07:54.399Z,28.47
2019-03-02T05:10:24.653Z,30.37
2019-03-02T05:12:54.322Z,28.40
2019-03-02T05:15:23.315Z,28.73
2019-03-02T05:17:52.427Z,27.83
2019-03-02T05:20:21.509Z,27.17
2019-03-02T05:22:54.415Z,29.77
2019-03-02T05:25:21.315Z,24.93
2019-03-02T05:27:50.434Z,27.10
2019-03-02T05:30:19.529Z,26.43
2019-03-02T05:32:51.237Z,25.97
2019-03-02T05:35:19.339Z,25.47
2019-03-02T05:37:48.458Z,29.03
2019-03-02T05:40:17.502Z,27.47
2019-03-02T05:42:50.958Z,26.70
2019-03-02T05:45:20.406Z,27.23
2019-03-02T05:47:48.952Z,27.73
2019-03-02T05:50:18.216Z,27.87
2019-03-02T05:52:50.656Z,26.57
2019-03-02T05:55:19.067Z,27.57
2019-03-02T05:57:48.397Z,27.27
2019-03-02T06:00:18.532Z,24.80
2019-03-02T06:02:47.622Z,26.97
2019-03-02T06:05:16.699Z,27.33
2019-03-02T06:07:45.816Z,27.67
2019-03-02T06:10:14.912Z,26.43
2019-03-02T06:12:44.012Z,27.63
2019-03-02T06:15:13.228Z,23.70
2019-03-02T06:17:42.352Z,25.57
2019-03-02T06:20:11.658Z,27.57
2019-03-02T06:22:40.828Z,27.57
2019-03-02T06:25:19.342Z,27.07
2019-03-02T06:27:43.175Z,27.83
2019-03-02T06:30:13.132Z,26.07
2019-03-02T06:32:42.210Z,28.63
2019-03-02T06:35:11.311Z,28.07
2019-03-02T06:37:40.356Z,28.70
2019-03-02T06:40:09.766Z,29.33
2019-03-02T06:42:41.979Z,30.23
2019-03-02T06:45:10.349Z,29.70
2019-03-02T06:47:39.420Z,31.30
2019-03-02T06:50:10.162Z,32.13
2019-03-02T06:52:39.238Z,30.97
2019-03-02T06:55:08.980Z,30.17
2019-03-02T06:57:38.076Z,28.43
2019-03-02T07:00:10.635Z,29.50
2019-03-02T07:02:39.851Z,30.00
2019-03-02T07:05:08.997Z,30.93
2019-03-02T07:07:38.073Z,31.53
2019-03-02T07:10:09.807Z,32.83
2019-03-02T07:12:41.824Z,31.00
2019-03-02T07:15:10.364Z,30.40
2019-03-02T07:18:02.054Z,31.27
2019-03-02T07:20:33.343Z,30.33
2019-03-02T07:23:02.426Z,29.83
2019-03-02T07:25:31.570Z,30.30
2019-03-02T07:28:01.818Z,32.40
2019-03-02T07:30:31.551Z,31.03
2019-03-02T07:33:00.627Z,30.53
2019-03-02T07:35:30.656Z,28.50
2019-03-02T07:37:59.902Z,32.63
2019-03-02T07:40:28.988Z,31.07
2019-03-02T07:42:58.112Z,32.20
2019-03-02T07:45:27.395Z,32.83
2019-03-02T07:48:00.241Z,32.17
2019-03-02T07:50:29.755Z,34.07
2019-03-02T07:52:58.997Z,33.40
2019-03-02T07:55:28.102Z,31.70
2019-03-02T07:57:57.229Z,34.43
2019-03-02T08:00:26.293Z,33.67
2019-03-02T08:02:56.199Z,34.07
2019-03-02T08:05:25.488Z,29.47
2019-03-02T08:07:54.593Z,35.40
2019-03-02T08:10:23.680Z,33.60
2019-03-02T08:12:52.791Z,36.80
2019-03-02T08:15:24.345Z,38.20
2019-03-02T08:17:53.784Z,37.37
2019-03-02T08:20:24.481Z,34.37
2019-03-02T08:22:53.843Z,31.83
2019-03-02T08:25:22.920Z,32.83
2019-03-02T08:27:52.001Z,33.30
2019-03-02T08:30:21.326Z,30.43
2019-03-02T08:32:53.841Z,32.83
2019-03-02T08:35:21.248Z,32.90
2019-03-02T08:37:50.368Z,34.40
2019-03-02T08:40:23.335Z,30.30
2019-03-02T08:42:50.609Z,28.00
2019-03-02T08:45:19.710Z,27.43
2019-03-02T08:47:48.840Z,27.20
2019-03-02T08:50:18.814Z,27.67
2019-03-02T08:52:48.096Z,27.33
2019-03-02T08:55:17.159Z,25.40
2019-03-02T08:57:46.271Z,24.57
2019-03-02T09:00:18.046Z,25.73
2019-03-02T09:02:47.177Z,24.30
2019-03-02T09:05:17.330Z,25.37
2019-03-02T09:07:46.468Z,23.33
2019-03-02T09:10:15.860Z,21.17
2019-03-02T09:12:44.941Z,22.23
2019-03-02T09:15:16.407Z,18.03
2019-03-02T09:17:45.550Z,17.73
2019-03-02T09:20:15.079Z,18.07
2019-03-02T09:22:44.173Z,18.23
2019-03-02T09:25:14.481Z,17.33
2019-03-02T09:27:43.573Z,16.47
2019-03-02T09:30:14.854Z,15.77
2019-03-02T09:32:47.062Z,15.17
2019-03-02T09:35:16.208Z,14.47
2019-03-02T09:37:46.815Z,14.40
2019-03-02T09:40:16.045Z,14.77
2019-03-02T09:42:45.349Z,15.23
2019-03-02T09:45:15.019Z,13.77
2019-03-02T09:47:47.629Z,14.20
2019-03-02T09:50:15.377Z,14.53
2019-03-02T09:52:44.490Z,12.77
2019-03-02T09:55:14.881Z,12.83
2019-03-02T09:57:47.432Z,13.30
2019-03-02T10:00:23.873Z,13.03
2019-03-02T10:02:51.624Z,12.60
2019-03-02T10:05:20.737Z,10.90
2019-03-02T10:07:49.823Z,11.27
2019-03-02T10:10:19.244Z,11.00
2019-03-02T10:12:51.539Z,11.97
2019-03-02T10:15:20.569Z,11.37
2019-03-02T10:17:49.681Z,10.10
2019-03-02T10:20:18.813Z,10.40
2019-03-02T10:22:47.926Z,12.27
2019-03-02T10:25:17.104Z,12.23
2019-03-02T10:27:47.020Z,10.50
2019-03-02T10:30:17.621Z,8.63
2019-03-02T10:32:46.709Z,8.33
2019-03-02T10:35:17.160Z,9.00
2019-03-02T10:37:47.096Z,8.37
2019-03-02T10:40:16.682Z,9.00
2019-03-02T10:42:45.822Z,7.90
2019-03-02T10:45:16.258Z,8.17
2019-03-02T10:47:45.353Z,8.13
2019-03-02T10:50:19.695Z,7.30
2019-03-02T10:52:48.925Z,6.13
2019-03-02T10:55:18.998Z,6.23
2019-03-02T10:57:48.334Z,5.90
2019-03-02T11:00:25.702Z,9.53
2019-03-02T11:02:56.046Z,8.03
2019-03-02T11:05:46.127Z,7.27
2019-03-02T11:08:25.139Z,7.00
2019-03-02T11:11:20.992Z,7.20
2019-03-02T11:14:07.452Z,7.07
2019-03-02T11:16:52.608Z,6.30
2019-03-02T11:19:31.323Z,5.00
2019-03-02T11:22:38.790Z,5.87
2019-03-02T11:25:27.114Z,7.73
2019-03-02T11:28:20.423Z,6.20
2019-03-02T11:31:06.954Z,6.50
2019-03-02T11:34:01.136Z,5.33
2019-03-02T11:36:39.960Z,5.53
2019-03-02T11:39:31.635Z,4.87
2019-03-02T11:42:22.843Z,4.57
2019-03-02T11:45:20.026Z,4.93
2019-03-02T11:48:16.127Z,4.03
2019-03-02T11:51:09.087Z,5.70
2019-03-02T11:53:57.263Z,4.50
2019-03-02T11:56:57.755Z,4.40
2019-03-02T11:59:46.446Z,4.50
2019-03-02T12:02:37.665Z,5.80
2019-03-02T12:05:28.323Z,4.37
2019-03-02T12:08:13.556Z,4.37
2019-03-02T12:11:00.398Z,4.30
2019-03-02T12:13:48.626Z,4.40
2019-03-02T12:16:32.823Z,4.57
2019-03-02T12:19:19.642Z,4.27
2019-03-02T12:22:06.559Z,5.90
2019-03-02T12:25:00.882Z,4.50
2019-03-02T12:27:47.986Z,4.67
2019-03-02T12:30:27.198Z,5.07
2019-03-02T12:33:22.292Z,4.70
2019-03-02T12:35:59.578Z,4.30
2019-03-02T12:38:48.077Z,4.60
2019-03-02T12:41:54.467Z,4.63
2019-03-02T12:44:33.714Z,4.23
2019-03-02T12:47:21.863Z,4.43
2019-03-02T12:50:09.969Z,4.30
2019-03-02T12:52:57.026Z,4.20
2019-03-02T12:55:43.828Z,4.20
2019-03-02T12:58:23.237Z,4.30
2019-03-02T13:01:02.895Z,5.30
2019-03-02T13:03:56.796Z,4.70
2019-03-02T13:06:41.669Z,4.73
2019-03-02T13:09:20.424Z,5.37
2019-03-02T13:12:07.146Z,5.90
2019-03-02T13:14:55.504Z,7.43
2019-03-02T13:17:42.464Z,7.00
2019-03-02T13:20:29.249Z,7.10
2019-03-02T13:23:23.243Z,4.73
2019-03-02T13:26:14.835Z,6.37
2019-03-02T13:29:12.980Z,6.33
2019-03-02T13:31:50.806Z,4.80
2019-03-02T13:34:28.672Z,4.60
2019-03-02T13:37:22.753Z,4.27
2019-03-02T13:40:22.184Z,4.43
2019-03-02T13:43:04.247Z,4.70
2019-03-02T13:46:00.964Z,5.10
2019-03-02T13:48:45.638Z,5.47
2019-03-02T13:51:52.012Z,5.00
2019-03-02T13:54:27.296Z,4.10
2019-03-02T13:57:15.443Z,5.80
2019-03-02T14:00:12.355Z,5.00
2019-03-02T14:03:03.291Z,4.60
2019-03-02T14:06:09.578Z,5.83
2019-03-02T14:09:00.515Z,5.20
2019-03-02T14:11:44.038Z,5.30
2019-03-02T14:14:47.101Z,4.23
2019-03-02T14:17:22.837Z,3.53
2019-03-02T14:20:26.215Z,3.73
2019-03-02T14:23:01.983Z,3.67
2019-03-02T14:25:36.924Z,4.00
2019-03-02T14:28:18.375Z,3.30
2019-03-02T14:31:20.182Z,2.93
2019-03-02T14:34:11.922Z,2.83
2019-03-02T14:36:55.184Z,2.80
2019-03-02T14:39:43.306Z,2.70
2019-03-02T14:42:34.531Z,3.10
2019-03-02T14:45:30.845Z,3.37
2019-03-02T14:48:23.695Z,3.10
2019-03-02T14:51:22.109Z,3.33
2019-03-02T14:54:10.049Z,3.37
2019-03-02T14:57:03.033Z,3.93
2019-03-02T14:59:50.256Z,3.50
2019-03-02T15:02:38.201Z,4.23
2019-03-02T15:05:24.975Z,4.17
2019-03-02T15:08:22.156Z,4.80
2019-03-02T15:11:04.506Z,4.17
2019-03-02T15:13:58.515Z,3.67
2019-03-02T15:16:40.365Z,3.63
2019-03-02T15:19:34.267Z,4.17
2019-03-02T15:22:08.401Z,4.53
2019-03-02T15:24:56.529Z,4.93
2019-03-02T15:27:31.028Z,3.70
2019-03-02T15:30:17.620Z,4.23
2019-03-02T15:33:11.893Z,4.03
2019-03-02T15:36:12.184Z,3.73
2019-03-02T15:38:54.034Z,4.13
2019-03-02T15:41:47.991Z,3.50
2019-03-02T15:44:34.574Z,3.70
2019-03-02T15:47:34.699Z,3.27
2019-03-02T15:50:23.011Z,5.60
2019-03-02T15:53:08.110Z,3.30
2019-03-02T15:55:50.224Z,3.50
2019-03-02T15:58:38.532Z,3.57
2019-03-02T16:01:27.227Z,3.20
2019-03-02T16:04:18.216Z,4.17
2019-03-02T16:07:07.410Z,4.17
2019-03-02T16:10:13.496Z,4.30
2019-03-02T16:13:01.649Z,3.60
2019-03-02T16:15:39.394Z,3.20
2019-03-02T16:18:27.558Z,3.50
2019-03-02T16:21:01.551Z,3.70
2019-03-02T16:23:36.921Z,4.07
2019-03-02T16:26:24.023Z,4.00
2019-03-02T16:28:59.658Z,3.50
2019-03-02T16:31:50.592Z,3.97
2019-03-02T16:34:37.232Z,3.90
2019-03-02T16:37:28.399Z,4.53
2019-03-02T16:40:31.729Z,4.40
2019-03-02T16:43:18.406Z,5.10
2019-03-02T16:46:09.331Z,4.30
2019-03-02T16:48:46.107Z,9.47
2019-03-02T16:51:37.916Z,5.57
2019-03-02T16:54:33.195Z,5.03
2019-03-02T16:57:10.151Z,4.57
2019-03-02T16:59:46.054Z,7.17
2019-03-02T17:02:46.834Z,7.10
2019-03-02T17:05:41.259Z,4.50
2019-03-02T17:08:31.119Z,6.20
2019-03-02T17:11:07.683Z,4.97
2019-03-02T17:13:58.659Z,5.70
2019-03-02T17:16:49.857Z,7.83
2019-03-02T17:19:32.876Z,7.07
2019-03-02T17:22:32.519Z,6.77
2019-03-02T17:25:32.267Z,7.13
2019-03-02T17:28:20.428Z,6.40
2019-03-02T17:31:07.284Z,6.27
2019-03-02T17:34:09.788Z,5.80
2019-03-02T17:37:06.224Z,5.80
2019-03-02T17:39:57.123Z,4.60
2019-03-02T17:42:44.843Z,9.33
2019-03-02T17:45:51.269Z,4.90
2019-03-02T17:48:42.399Z,5.43
2019-03-02T17:51:32.139Z,4.80
2019-03-02T17:54:20.205Z,4.00
2019-03-02T17:57:04.561Z,3.60
2019-03-02T17:59:51.130Z,3.77
2019-03-02T18:02:34.571Z,4.17
2019-03-02T18:05:21.458Z,5.10
2019-03-02T18:08:08.714Z,6.13
2019-03-02T18:11:01.080Z,5.00
2019-03-02T18:13:49.222Z,7.57
2019-03-02T18:16:41.363Z,8.43
2019-03-02T18:19:09.373Z,9.57
2019-03-02T18:21:38.454Z,8.40
2019-03-02T18:24:07.509Z,8.53
2019-03-02T18:26:36.600Z,7.30
2019-03-02T18:29:05.682Z,7.73
2019-03-02T18:31:34.846Z,7.37
2019-03-02T18:34:09.854Z,11.50
2019-03-02T18:36:44.017Z,11.93
2019-03-02T18:39:09.769Z,15.97
2019-03-02T18:41:38.858Z,15.63
2019-03-02T18:44:07.935Z,10.67
2019-03-02T18:46:37.047Z,10.97
2019-03-02T18:49:25.263Z,8.90
2019-03-02T18:52:25.257Z,10.60
2019-03-02T18:54:54.448Z,11.77
2019-03-02T18:57:23.513Z,9.70
2019-03-02T18:59:52.594Z,9.80
2019-03-02T19:02:21.785Z,9.67
2019-03-02T19:04:51.673Z,8.80
2019-03-02T19:07:20.763Z,7.33
2019-03-02T19:09:49.864Z,11.27
2019-03-02T19:12:18.969Z,8.20
2019-03-02T19:14:48.055Z,9.47
2019-03-02T19:17:17.163Z,9.83
2019-03-02T19:19:46.256Z,9.00
2019-03-02T19:22:15.371Z,9.63
2019-03-02T19:24:44.464Z,9.17
2019-03-02T19:27:13.550Z,8.97
2019-03-02T19:29:42.651Z,11.63
2019-03-02T19:32:11.761Z,10.97
2019-03-02T19:34:40.825Z,11.17
2019-03-02T19:37:09.899Z,11.40
2019-03-02T19:39:38.992Z,12.37
2019-03-02T19:42:08.101Z,10.27
2019-03-02T19:44:37.171Z,13.17
2019-03-02T19:47:06.311Z,9.53
2019-03-02T19:49:35.400Z,9.37
2019-03-02T19:52:04.513Z,9.03
2019-03-02T19:54:33.580Z,10.57
2019-03-02T19:57:02.774Z,9.47
2019-03-02T19:59:31.855Z,9.23
2019-03-02T20:02:00.962Z,10.33
2019-03-02T20:04:30.091Z,8.70
2019-03-02T20:06:59.205Z,9.23
2019-03-02T20:09:28.301Z,8.63
2019-03-02T20:11:57.433Z,8.63
2019-03-02T20:14:26.509Z,8.07
2019-03-02T20:16:55.616Z,10.70
2019-03-02T20:19:24.712Z,8.13
2019-03-02T20:21:53.831Z,7.57
2019-03-02T20:24:22.883Z,7.57
2019-03-02T20:26:51.998Z,8.50
2019-03-02T20:29:21.067Z,8.90
2019-03-02T20:31:50.168Z,9.10
2019-03-02T20:34:19.252Z,9.10
2019-03-02T20:36:48.340Z,10.40
2019-03-02T20:39:17.420Z,10.67
2019-03-02T20:41:46.550Z,10.23
2019-03-02T20:44:15.627Z,10.40
2019-03-02T20:46:44.752Z,9.47
2019-03-02T20:49:13.889Z,9.27
2019-03-02T20:51:43.008Z,10.43
2019-03-02T20:54:12.080Z,10.93
2019-03-02T20:56:41.260Z,9.63
2019-03-02T20:59:10.335Z,10.27
2019-03-02T21:01:39.440Z,9.40
2019-03-02T21:04:08.523Z,10.33
2019-03-02T21:06:37.649Z,8.90
2019-03-02T21:09:07.419Z,8.40
2019-03-02T21:11:36.537Z,8.13
2019-03-02T21:14:05.620Z,8.83
2019-03-02T21:16:34.729Z,7.87
2019-03-02T21:19:03.803Z,7.57
2019-03-02T21:21:32.914Z,8.03
2019-03-02T21:24:02.000Z,7.17
2019-03-02T21:26:31.171Z,7.00
2019-03-02T21:29:00.271Z,7.10
2019-03-02T21:31:29.366Z,6.70
2019-03-02T21:33:58.450Z,8.73
2019-03-02T21:36:27.531Z,7.30
2019-03-02T21:38:56.616Z,8.53
2019-03-02T21:41:25.748Z,7.73
2019-03-02T21:43:54.820Z,7.67
2019-03-02T21:46:23.954Z,10.40
2019-03-02T21:48:53.018Z,8.80
2019-03-02T21:51:23.377Z,8.97
2019-03-02T21:53:52.437Z,7.43
2019-03-02T21:56:21.543Z,7.17
2019-03-02T21:58:50.655Z,6.80
2019-03-02T22:01:19.838Z,6.17
2019-03-02T22:03:48.935Z,6.40
2019-03-02T22:06:18.028Z,5.70
2019-03-02T22:08:47.103Z,6.00
2019-03-02T22:11:16.230Z,7.00
2019-03-02T22:13:45.309Z,6.33
2019-03-02T22:16:14.368Z,7.40
2019-03-02T22:18:43.454Z,6.17
2019-03-02T22:21:12.539Z,5.77
2019-03-02T22:23:43.725Z,7.03
2019-03-02T22:26:12.813Z,7.10
2019-03-02T22:28:41.911Z,6.67
2019-03-02T22:31:11.035Z,6.50
2019-03-02T22:33:40.116Z,6.20
2019-03-02T22:36:09.194Z,5.50
2019-03-02T22:38:38.381Z,5.27
2019-03-02T22:41:07.480Z,5.30
2019-03-02T22:43:36.558Z,5.37
2019-03-02T22:46:05.652Z,5.13
2019-03-02T22:48:34.954Z,5.03
2019-03-02T22:51:04.037Z,5.40
2019-03-02T22:53:33.128Z,6.17
2019-03-02T22:56:02.234Z,5.83
2019-03-02T22:58:33.150Z,5.80
2019-03-02T23:01:37.623Z,6.07
2019-03-02T23:04:06.834Z,6.03
2019-03-02T23:06:35.928Z,6.93
2019-03-02T23:09:09.562Z,5.77
2019-03-02T23:11:38.636Z,7.07
2019-03-02T23:14:07.720Z,5.87
2019-03-02T23:16:36.788Z,5.83
2019-03-02T23:19:06.031Z,6.33
2019-03-02T23:21:35.109Z,5.17
2019-03-02T23:24:04.231Z,5.80
2019-03-02T23:26:33.310Z,7.47
2019-03-02T23:29:02.423Z,6.17
2019-03-02T23:31:31.477Z,6.10
2019-03-02T23:34:00.571Z,5.90
2019-03-02T23:36:29.955Z,5.47
2019-03-02T23:38:59.052Z,5.80
2019-03-02T23:41:28.126Z,5.80
2019-03-02T23:43:57.235Z,5.30
2019-03-02T23:46:26.327Z,5.60
2019-03-02T23:48:55.443Z,5.47
2019-03-02T23:51:24.520Z,5.63
2019-03-02T23:53:53.702Z,5.53
2019-03-02T23:56:22.767Z,5.70
2019-03-02T23:58:51.873Z,6.07
